< < Back
Terminal Aerodrome Forecast


Current Version              Previous Versions:   1  2  3  4  5  6  7  8  9  

Terminal Aerodrome Forecast

042
FTUS42 KJAX 270349 AAD
TAFSSI
TAF AMD
KSSI 270349Z 2704/2724 23005KT P6SM SCT050 BKN250
     FM271300 26007KT P6SM SCT020 SCT250
     FM271700 12010KT P6SM VCTS SCT040CB SCT150 BKN250 PROB30
      2717/2721 3SM +TSRA BR SCT020 BKN025CB BKN090=

Latest METAR

162
SAUS70 KWBC 280000 RRC
MTRSSI
METAR KSSI 272353Z AUTO 12005KT 10SM FEW026 28/23 A2994 RMK AO2 SLP141
T02780228 10300 20278 53005


USA.gov is the U.S. government's official web portal to all federal, state and local government web resources and services.